sensor_id;sensor_type;location;lat;lon;timestamp;pressure;altitude;pressure_sealevel;temperature;humidity
11985;BME280;6052;53.246;10.368;2023-03-13T00:01:43;99911.81;;;6.59;100.00
11985;BME280;6052;53.246;10.368;2023-03-13T00:04:13;99905.22;;;6.61;100.00
11985;BME280;6052;53.246;10.368;2023-03-13T00:06:42;99894.22;;;6.58;100.00
11985;BME280;6052;53.246;10.368;2023-03-13T00:09:14;99896.53;;;6.54;100.00
11985;BME280;6052;53.246;10.368;2023-03-13T00:11:44;99886.22;;;6.58;100.00
11985;BME280;6052;53.246;10.368;2023-03-13T00:14:16;99885.38;;;6.57;100.00
11985;BME280;6052;53.246;10.368;2023-03-13T00:16:45;99891.66;;;6.63;100.00
11985;BME280;6052;53.246;10.368;2023-03-13T00:19:15;99882.81;;;6.51;100.00
11985;BME280;6052;53.246;10.368;2023-03-13T00:21:44;99881.69;;;6.47;100.00
11985;BME280;6052;53.246;10.368;2023-03-13T00:24:13;99876.47;;;6.52;100.00
11985;BME280;6052;53.246;10.368;2023-03-13T00:26:43;99867.19;;;6.43;100.00
11985;BME280;6052;53.246;10.368;2023-03-13T00:29:12;99864.66;;;6.48;100.00
11985;BME280;6052;53.246;10.368;2023-03-13T00:31:44;99867.09;;;6.49;100.00
11985;BME280;6052;53.246;10.368;2023-03-13T00:34:13;99864.66;;;6.48;100.00
11985;BME280;6052;53.246;10.368;2023-03-13T00:36:42;99871.94;;;6.52;100.00
11985;BME280;6052;53.246;10.368;2023-03-13T00:39:12;99861.38;;;6.46;100.00
11985;BME280;6052;53.246;10.368;2023-03-13T00:41:41;99848.53;;;6.54;100.00
11985;BME280;6052;53.246;10.368;2023-03-13T00:44:10;99856.66;;;6.48;100.00
11985;BME280;6052;53.246;10.368;2023-03-13T00:46:39;99853.38;;;6.46;100.00
11985;BME280;6052;53.246;10.368;2023-03-13T00:49:11;99845.28;;;6.41;100.00
11985;BME280;6052;53.246;10.368;2023-03-13T00:51:41;99839.63;;;6.49;100.00
11985;BME280;6052;53.246;10.368;2023-03-13T00:54:10;99839.72;;;6.54;100.00
11985;BME280;6052;53.246;10.368;2023-03-13T00:56:39;99838.91;;;6.53;100.00
11985;BME280;6052;53.246;10.368;2023-03-13T00:59:08;99827.19;;;6.66;100.00
11985;BME280;6052;53.246;10.368;2023-03-13T01:01:38;99818.75;;;6.57;100.00
11985;BME280;6052;53.246;10.368;2023-03-13T01:04:11;99828.84;;;6.67;100.00
11985;BME280;6052;53.246;10.368;2023-03-13T01:06:41;99823.41;;;6.62;100.00
11985;BME280;6052;53.246;10.368;2023-03-13T01:09:13;99822.56;;;6.61;100.00
11985;BME280;6052;53.246;10.368;2023-03-13T01:11:44;99822.13;;;6.64;100.00
11985;BME280;6052;53.246;10.368;2023-03-13T01:14:15;99818.75;;;6.69;100.00
11985;BME280;6052;53.246;10.368;2023-03-13T01:16:45;99802.63;;;6.52;100.00
11985;BME280;6052;53.246;10.368;2023-03-13T01:19:17;99803.22;;;6.43;100.00
11985;BME280;6052;53.246;10.368;2023-03-13T01:21:47;99803.13;;;6.49;100.00
11985;BME280;6052;53.246;10.368;2023-03-13T01:24:16;99799.97;;;6.52;100.00
11985;BME280;6052;53.246;10.368;2023-03-13T01:26:45;99793.97;;;6.57;100.00
11985;BME280;6052;53.246;10.368;2023-03-13T01:29:15;99795.22;;;6.54;100.00
11985;BME280;6052;53.246;10.368;2023-03-13T01:31:46;99781.19;;;6.59;100.00
11985;BME280;6052;53.246;10.368;2023-03-13T01:34:18;99772.25;;;6.53;100.00
11985;BME280;6052;53.246;10.368;2023-03-13T01:36:47;99770.66;;;6.52;100.00
11985;BME280;6052;53.246;10.368;2023-03-13T01:39:17;99774.25;;;6.58;100.00
11985;BME280;6052;53.246;10.368;2023-03-13T01:41:47;99767.28;;;6.57;100.00
11985;BME280;6052;53.246;10.368;2023-03-13T01:44:21;99756.16;;;6.60;100.00
11985;BME280;6052;53.246;10.368;2023-03-13T01:46:51;99743.88;;;6.59;100.00
11985;BME280;6052;53.246;10.368;2023-03-13T01:49:26;99735.06;;;6.58;100.00
11985;BME280;6052;53.246;10.368;2023-03-13T01:52:00;99727.31;;;6.57;100.00
11985;BME280;6052;53.246;10.368;2023-03-13T01:54:36;99720.94;;;6.58;100.00
11985;BME280;6052;53.246;10.368;2023-03-13T01:57:12;99724.88;;;6.55;100.00
11985;BME280;6052;53.246;10.368;2023-03-13T01:59:47;99708.75;;;6.62;100.00
11985;BME280;6052;53.246;10.368;2023-03-13T02:02:20;99712.81;;;6.53;100.00
11985;BME280;6052;53.246;10.368;2023-03-13T02:04:55;99706.88;;;6.62;100.00
11985;BME280;6052;53.246;10.368;2023-03-13T02:07:28;99696.50;;;6.49;100.00
11985;BME280;6052;53.246;10.368;2023-03-13T02:09:59;99694.84;;;6.60;100.00
11985;BME280;6052;53.246;10.368;2023-03-13T02:12:30;99681.53;;;6.48;100.00
11985;BME280;6052;53.246;10.368;2023-03-13T02:15:03;99671.78;;;6.54;100.00
11985;BME280;6052;53.246;10.368;2023-03-13T02:17:34;99669.34;;;6.52;100.00
11985;BME280;6052;53.246;10.368;2023-03-13T02:20:08;99664.63;;;6.54;100.00
11985;BME280;6052;53.246;10.368;2023-03-13T02:22:42;99659.63;;;6.58;100.00
11985;BME280;6052;53.246;10.368;2023-03-13T02:27:57;99656.13;;;6.57;100.00
11985;BME280;6052;53.246;10.368;2023-03-13T02:30:30;99657.66;;;6.53;100.00
11985;BME280;6052;53.246;10.368;2023-03-13T02:33:00;99639.81;;;6.54;100.00
11985;BME280;6052;53.246;10.368;2023-03-13T02:35:31;99643.13;;;6.61;100.00
11985;BME280;6052;53.246;10.368;2023-03-13T02:38:02;99643.63;;;6.58;100.00
11985;BME280;6052;53.246;10.368;2023-03-13T02:40:36;99640.47;;;6.61;100.00
11985;BME280;6052;53.246;10.368;2023-03-13T02:43:12;99635.50;;;6.64;100.00
11985;BME280;6052;53.246;10.368;2023-03-13T02:46:02;99635.94;;;6.61;100.00
11985;BME280;6052;53.246;10.368;2023-03-13T02:48:34;99633.84;;;6.63;100.00
11985;BME280;6052;53.246;10.368;2023-03-13T02:51:07;99617.72;;;6.70;100.00
11985;BME280;6052;53.246;10.368;2023-03-13T02:53:37;99618.31;;;6.72;100.00
11985;BME280;6052;53.246;10.368;2023-03-13T02:56:06;99619.22;;;6.66;100.00
11985;BME280;6052;53.246;10.368;2023-03-13T02:58:42;99613.44;;;6.69;100.00
11985;BME280;6052;53.246;10.368;2023-03-13T03:01:16;99613.22;;;6.70;100.00
11985;BME280;6052;53.246;10.368;2023-03-13T03:03:45;99613.75;;;6.72;100.00
11985;BME280;6052;53.246;10.368;2023-03-13T03:06:14;99610.69;;;6.64;100.00
11985;BME280;6052;53.246;10.368;2023-03-13T03:08:44;99616.19;;;6.74;100.00
11985;BME280;6052;53.246;10.368;2023-03-13T03:11:13;99612.47;;;6.75;100.00
11985;BME280;6052;53.246;10.368;2023-03-13T03:13:45;99606.72;;;6.66;100.00
11985;BME280;6052;53.246;10.368;2023-03-13T03:16:14;99602.06;;;6.73;100.00
11985;BME280;6052;53.246;10.368;2023-03-13T03:18:44;99597.06;;;6.77;100.00
11985;BME280;6052;53.246;10.368;2023-03-13T03:21:14;99596.25;;;6.76;100.00
11985;BME280;6052;53.246;10.368;2023-03-13T03:23:43;99593.81;;;6.75;100.00
11985;BME280;6052;53.246;10.368;2023-03-13T03:26:12;99596.25;;;6.76;100.00
11985;BME280;6052;53.246;10.368;2023-03-13T03:28:44;99596.25;;;6.76;100.00
11985;BME280;6052;53.246;10.368;2023-03-13T03:31:14;99582.81;;;6.71;100.00
11985;BME280;6052;53.246;10.368;2023-03-13T03:33:44;99578.06;;;6.73;100.00
11985;BME280;6052;53.246;10.368;2023-03-13T03:36:15;99570.41;;;6.77;100.00
11985;BME280;6052;53.246;10.368;2023-03-13T03:38:45;99562.88;;;6.74;100.00
11985;BME280;6052;53.246;10.368;2023-03-13T03:41:15;99565.06;;;6.77;100.00
11985;BME280;6052;53.246;10.368;2023-03-13T03:43:47;99557.38;;;6.80;100.00
11985;BME280;6052;53.246;10.368;2023-03-13T03:46:17;99554.50;;;6.82;100.00
11985;BME280;6052;53.246;10.368;2023-03-13T03:48:46;99539.19;;;6.77;100.00
11985;BME280;6052;53.246;10.368;2023-03-13T03:51:16;99540.00;;;6.78;100.00
11985;BME280;6052;53.246;10.368;2023-03-13T03:53:45;99519.66;;;6.88;100.00
11985;BME280;6052;53.246;10.368;2023-03-13T03:56:14;99516.66;;;6.85;100.00
11985;BME280;6052;53.246;10.368;2023-03-13T03:58:44;99508.84;;;6.78;100.00
11985;BME280;6052;53.246;10.368;2023-03-13T04:01:15;99503.31;;;6.85;100.00
11985;BME280;6052;53.246;10.368;2023-03-13T04:03:45;99503.31;;;6.85;100.00
11985;BME280;6052;53.246;10.368;2023-03-13T04:06:14;99500.72;;;6.90;100.00
11985;BME280;6052;53.246;10.368;2023-03-13T04:08:43;99494.69;;;6.94;100.00
11985;BME280;6052;53.246;10.368;2023-03-13T04:11:14;99483.13;;;6.89;100.00
11985;BME280;6052;53.246;10.368;2023-03-13T04:13:43;99473.59;;;6.93;100.00
11985;BME280;6052;53.246;10.368;2023-03-13T04:16:15;99478.84;;;6.88;100.00
11985;BME280;6052;53.246;10.368;2023-03-13T04:18:45;99468.09;;;6.83;100.00
11985;BME280;6052;53.246;10.368;2023-03-13T04:21:14;99467.44;;;6.92;100.00
11985;BME280;6052;53.246;10.368;2023-03-13T04:23:43;99455.66;;;6.88;100.00
11985;BME280;6052;53.246;10.368;2023-03-13T04:26:12;99453.78;;;6.89;100.00
11985;BME280;6052;53.246;10.368;2023-03-13T04:28:42;99449.03;;;6.91;100.00
11985;BME280;6052;53.246;10.368;2023-03-13T04:31:11;99445.78;;;6.89;100.00
11985;BME280;6052;53.246;10.368;2023-03-13T04:33:43;99429.84;;;6.94;100.00
11985;BME280;6052;53.246;10.368;2023-03-13T04:36:12;99432.69;;;6.87;100.00
11985;BME280;6052;53.246;10.368;2023-03-13T04:38:41;99423.47;;;6.95;100.00
11985;BME280;6052;53.246;10.368;2023-03-13T04:41:11;99412.31;;;6.98;100.00
11985;BME280;6052;53.246;10.368;2023-03-13T04:43:40;99404.19;;;6.88;100.00
11985;BME280;6052;53.246;10.368;2023-03-13T04:46:09;99411.13;;;6.89;100.00
11985;BME280;6052;53.246;10.368;2023-03-13T04:48:38;99395.19;;;6.94;100.00
11985;BME280;6052;53.246;10.368;2023-03-13T04:51:10;99384.22;;;6.90;100.00
11985;BME280;6052;53.246;10.368;2023-03-13T04:53:39;99383.06;;;6.86;100.00
11985;BME280;6052;53.246;10.368;2023-03-13T04:56:10;99378.41;;;6.93;100.00
11985;BME280;6052;53.246;10.368;2023-03-13T04:58:40;99373.47;;;6.85;100.00
11985;BME280;6052;53.246;10.368;2023-03-13T05:01:12;99368.69;;;6.87;100.00
11985;BME280;6052;53.246;10.368;2023-03-13T05:03:41;99362.50;;;6.82;100.00
11985;BME280;6052;53.246;10.368;2023-03-13T05:06:13;99353.91;;;6.80;100.00
11985;BME280;6052;53.246;10.368;2023-03-13T05:08:42;99350.47;;;6.79;100.00
11985;BME280;6052;53.246;10.368;2023-03-13T05:11:12;99350.28;;;6.86;100.00
11985;BME280;6052;53.246;10.368;2023-03-13T05:13:41;99345.91;;;6.80;100.00
11985;BME280;6052;53.246;10.368;2023-03-13T05:16:10;99337.50;;;6.88;100.00
11985;BME280;6052;53.246;10.368;2023-03-13T05:18:40;99342.00;;;6.87;100.00
11985;BME280;6052;53.246;10.368;2023-03-13T05:21:12;99332.72;;;6.90;100.00
11985;BME280;6052;53.246;10.368;2023-03-13T05:23:42;99323.03;;;6.84;100.00
11985;BME280;6052;53.246;10.368;2023-03-13T05:26:11;99325.47;;;6.85;100.00
11985;BME280;6052;53.246;10.368;2023-03-13T05:28:40;99310.22;;;6.81;100.00
11985;BME280;6052;53.246;10.368;2023-03-13T05:31:10;99293.41;;;6.80;100.00
11985;BME280;6052;53.246;10.368;2023-03-13T05:33:39;99302.78;;;6.83;100.00
11985;BME280;6052;53.246;10.368;2023-03-13T05:36:08;99298.97;;;6.79;100.00
11985;BME280;6052;53.246;10.368;2023-03-13T05:38:40;99303.81;;;6.82;100.00
11985;BME280;6052;53.246;10.368;2023-03-13T05:41:10;99295.06;;;6.86;100.00
11985;BME280;6052;53.246;10.368;2023-03-13T05:43:39;99302.28;;;6.86;100.00
11985;BME280;6052;53.246;10.368;2023-03-13T05:46:09;99301.94;;;6.82;100.00
11985;BME280;6052;53.246;10.368;2023-03-13T05:48:38;99318.91;;;6.93;100.00
11985;BME280;6052;53.246;10.368;2023-03-13T05:51:07;99315.75;;;6.96;100.00
11985;BME280;6052;53.246;10.368;2023-03-13T05:53:39;99313.50;;;6.88;100.00
11985;BME280;6052;53.246;10.368;2023-03-13T05:56:11;99291.22;;;6.99;100.00
11985;BME280;6052;53.246;10.368;2023-03-13T05:58:40;99298.09;;;6.95;100.00
11985;BME280;6052;53.246;10.368;2023-03-13T06:01:11;99291.22;;;6.99;100.00
11985;BME280;6052;53.246;10.368;2023-03-13T06:03:41;99288.38;;;7.05;100.00
11985;BME280;6052;53.246;10.368;2023-03-13T06:06:10;99288.13;;;7.07;100.00
11985;BME280;6052;53.246;10.368;2023-03-13T06:08:42;99281.25;;;7.11;100.00
11985;BME280;6052;53.246;10.368;2023-03-13T06:11:11;99287.56;;;7.05;100.00
11985;BME280;6052;53.246;10.368;2023-03-13T06:13:41;99277.03;;;7.15;100.00
11985;BME280;6052;53.246;10.368;2023-03-13T06:16:10;99277.59;;;7.17;100.00
11985;BME280;6052;53.246;10.368;2023-03-13T06:18:39;99269.59;;;7.17;100.00
11985;BME280;6052;53.246;10.368;2023-03-13T06:21:08;99265.59;;;7.19;100.00
11985;BME280;6052;53.246;10.368;2023-03-13T06:23:38;99265.91;;;7.23;100.00
11985;BME280;6052;53.246;10.368;2023-03-13T06:26:10;99261.56;;;7.17;100.00
11985;BME280;6052;53.246;10.368;2023-03-13T06:28:39;99274.72;;;7.23;100.00
11985;BME280;6052;53.246;10.368;2023-03-13T06:31:09;99257.41;;;7.26;100.00
11985;BME280;6052;53.246;10.368;2023-03-13T06:33:38;99253.13;;;7.25;100.00
11985;BME280;6052;53.246;10.368;2023-03-13T06:36:08;99254.56;;;7.32;100.00
11985;BME280;6052;53.246;10.368;2023-03-13T06:38:38;99257.00;;;7.39;100.00
11985;BME280;6052;53.246;10.368;2023-03-13T06:41:09;99260.00;;;7.42;100.00
11985;BME280;6052;53.246;10.368;2023-03-13T06:43:39;99253.03;;;7.41;100.00
11985;BME280;6052;53.246;10.368;2023-03-13T06:46:15;99250.63;;;7.40;100.00
11985;BME280;6052;53.246;10.368;2023-03-13T06:48:46;99232.97;;;7.39;100.00
11985;BME280;6052;53.246;10.368;2023-03-13T06:51:16;99222.41;;;7.49;100.00
11985;BME280;6052;53.246;10.368;2023-03-13T06:53:46;99225.59;;;7.46;100.00
11985;BME280;6052;53.246;10.368;2023-03-13T06:56:20;99217.88;;;7.49;100.00
11985;BME280;6052;53.246;10.368;2023-03-13T06:58:49;99214.72;;;7.52;100.00
11985;BME280;6052;53.246;10.368;2023-03-13T07:01:19;99218.72;;;7.55;100.00
11985;BME280;6052;53.246;10.368;2023-03-13T07:03:48;99220.09;;;7.57;100.00
11985;BME280;6052;53.246;10.368;2023-03-13T07:06:17;99217.22;;;7.64;100.00
11985;BME280;6052;53.246;10.368;2023-03-13T07:08:47;99227.63;;;7.65;100.00
11985;BME280;6052;53.246;10.368;2023-03-13T07:11:16;99211.09;;;7.68;100.00
11985;BME280;6052;53.246;10.368;2023-03-13T07:13:48;99210.84;;;7.70;100.00
11985;BME280;6052;53.246;10.368;2023-03-13T07:16:18;99195.94;;;7.74;100.00
11985;BME280;6052;53.246;10.368;2023-03-13T07:18:47;99204.44;;;7.71;100.00
11985;BME280;6052;53.246;10.368;2023-03-13T07:21:17;99204.50;;;7.76;100.00
11985;BME280;6052;53.246;10.368;2023-03-13T07:23:46;99202.66;;;7.81;100.00
11985;BME280;6052;53.246;10.368;2023-03-13T07:26:15;99194.91;;;7.80;100.00
11985;BME280;6052;53.246;10.368;2023-03-13T07:28:48;99198.16;;;7.87;100.00
11985;BME280;6052;53.246;10.368;2023-03-13T07:31:19;99188.78;;;7.84;100.00
11985;BME280;6052;53.246;10.368;2023-03-13T07:33:49;99204.06;;;7.89;100.00
11985;BME280;6052;53.246;10.368;2023-03-13T07:36:22;99191.50;;;7.89;100.00
11985;BME280;6052;53.246;10.368;2023-03-13T07:38:51;99178.69;;;7.91;100.00
11985;BME280;6052;53.246;10.368;2023-03-13T07:41:21;99182.16;;;7.92;100.00
11985;BME280;6052;53.246;10.368;2023-03-13T07:43:53;99177.41;;;7.99;100.00
11985;BME280;6052;53.246;10.368;2023-03-13T07:46:22;99181.16;;;7.98;100.00
11985;BME280;6052;53.246;10.368;2023-03-13T07:48:52;99166.72;;;7.99;100.00
11985;BME280;6052;53.246;10.368;2023-03-13T07:51:23;99168.88;;;8.02;100.00
11985;BME280;6052;53.246;10.368;2023-03-13T07:54:09;99178.00;;;8.06;100.00
11985;BME280;6052;53.246;10.368;2023-03-13T07:56:38;99168.41;;;8.10;100.00
11985;BME280;6052;53.246;10.368;2023-03-13T07:59:10;99154.22;;;8.09;100.00
11985;BME280;6052;53.246;10.368;2023-03-13T08:01:39;99164.44;;;8.17;100.00
11985;BME280;6052;53.246;10.368;2023-03-13T08:04:11;99172.19;;;8.19;100.00
11985;BME280;6052;53.246;10.368;2023-03-13T08:06:41;99163.97;;;8.20;100.00
11985;BME280;6052;53.246;10.368;2023-03-13T08:09:10;99170.72;;;8.38;100.00
11985;BME280;6052;53.246;10.368;2023-03-13T08:11:39;99167.81;;;8.44;100.00
11985;BME280;6052;53.246;10.368;2023-03-13T08:14:12;99177.22;;;8.52;100.00
11985;BME280;6052;53.246;10.368;2023-03-13T08:16:42;99169.22;;;8.57;100.00
11985;BME280;6052;53.246;10.368;2023-03-13T08:19:11;99171.09;;;8.61;100.00
11985;BME280;6052;53.246;10.368;2023-03-13T08:21:40;99169.78;;;8.69;100.00
11985;BME280;6052;53.246;10.368;2023-03-13T08:24:10;99171.97;;;8.77;100.00
11985;BME280;6052;53.246;10.368;2023-03-13T08:26:40;99173.31;;;8.79;100.00
11985;BME280;6052;53.246;10.368;2023-03-13T08:29:14;99173.09;;;8.96;100.00
11985;BME280;6052;53.246;10.368;2023-03-13T08:31:45;99174.69;;;8.92;100.00
11985;BME280;6052;53.246;10.368;2023-03-13T08:34:16;99179.50;;;9.00;100.00
11985;BME280;6052;53.246;10.368;2023-03-13T08:36:46;99174.72;;;9.02;100.00
11985;BME280;6052;53.246;10.368;2023-03-13T08:39:17;99181.41;;;9.09;100.00
11985;BME280;6052;53.246;10.368;2023-03-13T08:41:47;99169.66;;;9.15;100.00
11985;BME280;6052;53.246;10.368;2023-03-13T08:44:19;99167.56;;;9.32;100.00
11985;BME280;6052;53.246;10.368;2023-03-13T08:46:48;99163.78;;;9.28;100.00
11985;BME280;6052;53.246;10.368;2023-03-13T08:49:17;99164.06;;;9.42;100.00
11985;BME280;6052;53.246;10.368;2023-03-13T08:51:47;99153.09;;;9.43;100.00
11985;BME280;6052;53.246;10.368;2023-03-13T08:54:16;99154.69;;;9.44;100.00
11985;BME280;6052;53.246;10.368;2023-03-13T08:56:45;99157.91;;;9.61;100.00
11985;BME280;6052;53.246;10.368;2023-03-13T08:59:19;99141.28;;;9.59;100.00
11985;BME280;6052;53.246;10.368;2023-03-13T09:01:49;99151.47;;;9.72;100.00
11985;BME280;6052;53.246;10.368;2023-03-13T09:04:18;99132.44;;;9.84;100.00
11985;BME280;6052;53.246;10.368;2023-03-13T09:06:48;99141.81;;;9.91;100.00
11985;BME280;6052;53.246;10.368;2023-03-13T09:09:17;99134.84;;;9.90;100.00
11985;BME280;6052;53.246;10.368;2023-03-13T09:11:49;99134.03;;;10.00;100.00
11985;BME280;6052;53.246;10.368;2023-03-13T09:14:21;99130.53;;;9.99;100.00
11985;BME280;6052;53.246;10.368;2023-03-13T09:16:51;99122.78;;;9.98;100.00
11985;BME280;6052;53.246;10.368;2023-03-13T09:19:21;99117.41;;;10.13;100.00
11985;BME280;6052;53.246;10.368;2023-03-13T09:21:51;99132.13;;;10.25;100.00
11985;BME280;6052;53.246;10.368;2023-03-13T09:24:20;99115.19;;;10.30;100.00
11985;BME280;6052;53.246;10.368;2023-03-13T09:26:49;99112.50;;;10.30;100.00
11985;BME280;6052;53.246;10.368;2023-03-13T09:29:29;99105.50;;;10.39;100.00
11985;BME280;6052;53.246;10.368;2023-03-13T09:31:59;99104.94;;;10.47;100.00
11985;BME280;6052;53.246;10.368;2023-03-13T09:34:30;99113.53;;;10.44;100.00
11985;BME280;6052;53.246;10.368;2023-03-13T09:36:59;99099.84;;;10.45;100.00
11985;BME280;6052;53.246;10.368;2023-03-13T09:39:29;99089.06;;;10.55;100.00
11985;BME280;6052;53.246;10.368;2023-03-13T09:42:03;99106.22;;;10.59;100.00
11985;BME280;6052;53.246;10.368;2023-03-13T09:44:44;99094.66;;;10.64;100.00
11985;BME280;6052;53.246;10.368;2023-03-13T09:47:20;99094.13;;;10.67;100.00
11985;BME280;6052;53.246;10.368;2023-03-13T09:49:53;99080.44;;;10.68;100.00
11985;BME280;6052;53.246;10.368;2023-03-13T09:52:28;99080.13;;;10.70;100.00
11985;BME280;6052;53.246;10.368;2023-03-13T09:55:03;99072.56;;;10.82;100.00
11985;BME280;6052;53.246;10.368;2023-03-13T09:57:34;99066.13;;;10.78;100.00
11985;BME280;6052;53.246;10.368;2023-03-13T10:00:12;99065.59;;;10.81;100.00
11985;BME280;6052;53.246;10.368;2023-03-13T10:02:44;99070.91;;;10.91;100.00
11985;BME280;6052;53.246;10.368;2023-03-13T10:05:17;99069.78;;;10.97;100.00
11985;BME280;6052;53.246;10.368;2023-03-13T10:07:49;99080.25;;;10.98;100.00
11985;BME280;6052;53.246;10.368;2023-03-13T10:10:25;99079.94;;;11.05;100.00
11985;BME280;6052;53.246;10.368;2023-03-13T10:13:03;99083.13;;;11.07;100.00
11985;BME280;6052;53.246;10.368;2023-03-13T10:15:44;99064.59;;;11.05;100.00
11985;BME280;6052;53.246;10.368;2023-03-13T10:18:17;99072.22;;;11.27;100.00
11985;BME280;6052;53.246;10.368;2023-03-13T10:20:49;99073.78;;;11.33;100.00
11985;BME280;6052;53.246;10.368;2023-03-13T10:23:22;99073.47;;;11.39;100.00
11985;BME280;6052;53.246;10.368;2023-03-13T10:25:54;99078.38;;;11.32;100.00
11985;BME280;6052;53.246;10.368;2023-03-13T10:28:24;99062.72;;;11.39;100.00
11985;BME280;6052;53.246;10.368;2023-03-13T10:31:00;99079.38;;;11.36;100.00
11985;BME280;6052;53.246;10.368;2023-03-13T10:33:33;99063.75;;;11.43;100.00
11985;BME280;6052;53.246;10.368;2023-03-13T10:36:07;99059.44;;;11.47;100.00
11985;BME280;6052;53.246;10.368;2023-03-13T10:38:46;99076.34;;;11.48;100.00
11985;BME280;6052;53.246;10.368;2023-03-13T10:41:27;99058.34;;;11.48;100.00
11985;BME280;6052;53.246;10.368;2023-03-13T10:43:59;99054.25;;;11.56;100.00
11985;BME280;6052;53.246;10.368;2023-03-13T10:46:34;99064.41;;;11.64;100.00
11985;BME280;6052;53.246;10.368;2023-03-13T10:49:13;99057.72;;;11.61;100.00
11985;BME280;6052;53.246;10.368;2023-03-13T10:51:47;99062.13;;;11.76;100.00
11985;BME280;6052;53.246;10.368;2023-03-13T10:54:21;99036.66;;;11.68;100.00
11985;BME280;6052;53.246;10.368;2023-03-13T10:57:06;99038.91;;;11.85;100.00
11985;BME280;6052;53.246;10.368;2023-03-13T10:59:39;99034.53;;;11.94;100.00
11985;BME280;6052;53.246;10.368;2023-03-13T11:02:24;99032.34;;;11.96;100.00
11985;BME280;6052;53.246;10.368;2023-03-13T11:04:55;99032.75;;;12.08;100.00
11985;BME280;6052;53.246;10.368;2023-03-13T11:07:28;99020.56;;;12.15;100.00
11985;BME280;6052;53.246;10.368;2023-03-13T11:09:58;99007.66;;;12.12;100.00
11985;BME280;6052;53.246;10.368;2023-03-13T11:12:33;99000.44;;;12.31;100.00
11985;BME280;6052;53.246;10.368;2023-03-13T11:15:12;99006.63;;;12.32;100.00
11985;BME280;6052;53.246;10.368;2023-03-13T11:17:49;98991.03;;;12.29;100.00
11985;BME280;6052;53.246;10.368;2023-03-13T11:20:24;98977.16;;;12.40;100.00
11985;BME280;6052;53.246;10.368;2023-03-13T11:23:07;98979.47;;;12.65;100.00
11985;BME280;6052;53.246;10.368;2023-03-13T11:25:42;98964.97;;;12.80;100.00
11985;BME280;6052;53.246;10.368;2023-03-13T11:28:25;98954.72;;;12.82;100.00
11985;BME280;6052;53.246;10.368;2023-03-13T11:31:02;98938.13;;;12.75;100.00
11985;BME280;6052;53.246;10.368;2023-03-13T11:33:46;98940.44;;;12.81;100.00
11985;BME280;6052;53.246;10.368;2023-03-13T11:36:21;98936.38;;;12.84;100.00
11985;BME280;6052;53.246;10.368;2023-03-13T11:39:00;98937.56;;;12.78;100.00
11985;BME280;6052;53.246;10.368;2023-03-13T11:41:47;98916.22;;;12.81;100.00
11985;BME280;6052;53.246;10.368;2023-03-13T11:44:29;98902.75;;;12.81;100.00
11985;BME280;6052;53.246;10.368;2023-03-13T11:47:09;98903.78;;;12.85;100.00
11985;BME280;6052;53.246;10.368;2023-03-13T11:50:00;98888.63;;;12.89;100.00
11985;BME280;6052;53.246;10.368;2023-03-13T11:52:39;98907.69;;;12.93;100.00
11985;BME280;6052;53.246;10.368;2023-03-13T11:55:27;98886.59;;;12.81;100.00
11985;BME280;6052;53.246;10.368;2023-03-13T11:58:08;98893.97;;;13.08;100.00
11985;BME280;6052;53.246;10.368;2023-03-13T12:00:45;98885.00;;;13.12;100.00
11985;BME280;6052;53.246;10.368;2023-03-13T12:03:19;98902.78;;;13.13;100.00
11985;BME280;6052;53.246;10.368;2023-03-13T12:05:59;98872.75;;;13.20;100.00
11985;BME280;6052;53.246;10.368;2023-03-13T12:08:39;98864.03;;;13.23;100.00
11985;BME280;6052;53.246;10.368;2023-03-13T12:11:15;98849.50;;;13.37;100.00
11985;BME280;6052;53.246;10.368;2023-03-13T12:13:49;98849.41;;;13.42;100.00
11985;BME280;6052;53.246;10.368;2023-03-13T12:16:23;98849.28;;;13.61;100.00
11985;BME280;6052;53.246;10.368;2023-03-13T12:18:54;98844.25;;;13.68;100.00
11985;BME280;6052;53.246;10.368;2023-03-13T12:21:31;98834.09;;;13.65;100.00
11985;BME280;6052;53.246;10.368;2023-03-13T12:24:10;98820.50;;;13.70;100.00
11985;BME280;6052;53.246;10.368;2023-03-13T12:26:43;98811.00;;;13.72;100.00
11985;BME280;6052;53.246;10.368;2023-03-13T12:29:15;98781.22;;;13.77;100.00
11985;BME280;6052;53.246;10.368;2023-03-13T12:31:52;98782.88;;;13.87;100.00
11985;BME280;6052;53.246;10.368;2023-03-13T12:34:26;98794.13;;;13.80;100.00
11985;BME280;6052;53.246;10.368;2023-03-13T12:37:05;98778.19;;;13.92;100.00
11985;BME280;6052;53.246;10.368;2023-03-13T12:39:42;98772.09;;;13.87;100.00
11985;BME280;6052;53.246;10.368;2023-03-13T12:42:21;98766.34;;;14.02;100.00
11985;BME280;6052;53.246;10.368;2023-03-13T12:44:52;98760.03;;;14.06;100.00
11985;BME280;6052;53.246;10.368;2023-03-13T12:47:27;98771.88;;;14.19;100.00
11985;BME280;6052;53.246;10.368;2023-03-13T12:50:18;98754.25;;;13.99;100.00
11985;BME280;6052;53.246;10.368;2023-03-13T12:53:12;98752.53;;;14.03;100.00
11985;BME280;6052;53.246;10.368;2023-03-13T12:56:19;98737.91;;;14.18;100.00
11985;BME280;6052;53.246;10.368;2023-03-13T12:58:55;98730.31;;;14.20;100.00
11985;BME280;6052;53.246;10.368;2023-03-13T13:01:31;98726.50;;;14.21;100.00
11985;BME280;6052;53.246;10.368;2023-03-13T13:04:04;98719.94;;;14.35;100.00
11985;BME280;6052;53.246;10.368;2023-03-13T13:06:53;98714.72;;;14.39;100.00
11985;BME280;6052;53.246;10.368;2023-03-13T13:09:28;98695.06;;;14.47;100.00
11985;BME280;6052;53.246;10.368;2023-03-13T13:12:00;98698.63;;;14.64;100.00
11985;BME280;6052;53.246;10.368;2023-03-13T13:14:54;98716.66;;;14.47;100.00
11985;BME280;6052;53.246;10.368;2023-03-13T13:17:39;98703.50;;;14.54;100.00
11985;BME280;6052;53.246;10.368;2023-03-13T13:20:33;98699.81;;;14.50;100.00
11985;BME280;6052;53.246;10.368;2023-03-13T13:23:33;98709.38;;;14.56;100.00
11985;BME280;6052;53.246;10.368;2023-03-13T13:32:36;98694.78;;;14.57;100.00
11985;BME280;6052;53.246;10.368;2023-03-13T13:35:26;98682.91;;;14.66;100.00